createdAt,value
2023-03-27T00:01:42.723Z,7.30
2023-03-27T00:05:45.278Z,7.20
2023-03-27T00:09:46.457Z,7.00
2023-03-27T00:13:50.481Z,6.90
2023-03-27T00:17:53.687Z,6.50
2023-03-27T00:21:55.387Z,6.50
2023-03-27T00:25:57.703Z,6.50
2023-03-27T00:29:58.843Z,6.30
2023-03-27T00:34:00.818Z,6.50
2023-03-27T00:38:02.287Z,6.50
2023-03-27T00:42:03.444Z,6.60
2023-03-27T00:46:13.402Z,6.80
2023-03-27T00:50:18.345Z,7.00
2023-03-27T00:54:24.692Z,7.20
2023-03-27T00:58:29.871Z,7.20
2023-03-27T01:02:31.379Z,7.40
2023-03-27T01:06:32.986Z,7.30
2023-03-27T01:10:37.968Z,7.20
2023-03-27T01:15:09.157Z,7.00
2023-03-27T01:19:38.683Z,6.70
2023-03-27T01:24:15.850Z,6.70
2023-03-27T01:28:38.687Z,6.70
2023-03-27T01:32:52.868Z,6.70
2023-03-27T01:37:21.199Z,6.80
2023-03-27T01:41:35.048Z,6.80
2023-03-27T01:45:49.270Z,6.50
2023-03-27T01:49:57.362Z,6.40
2023-03-27T01:54:11.467Z,6.30
2023-03-27T01:58:16.421Z,6.20
2023-03-27T02:02:21.441Z,6.20
2023-03-27T02:06:35.668Z,6.10
2023-03-27T02:10:40.927Z,6.00
2023-03-27T02:14:54.498Z,5.90
2023-03-27T02:18:59.289Z,5.80
2023-03-27T02:23:01.046Z,5.80
2023-03-27T02:27:05.976Z,5.70
2023-03-27T02:31:34.062Z,5.70
2023-03-27T02:35:43.855Z,5.50
2023-03-27T02:39:58.109Z,5.30
2023-03-27T02:44:15.206Z,5.40
2023-03-27T02:48:26.378Z,5.30
2023-03-27T02:52:33.890Z,5.10
2023-03-27T02:56:38.889Z,5.10
2023-03-27T03:00:45.636Z,5.10
2023-03-27T03:04:55.277Z,5.10
2023-03-27T03:09:05.368Z,5.10
2023-03-27T03:13:06.727Z,5.30
2023-03-27T03:17:07.917Z,5.50
2023-03-27T03:21:09.183Z,5.30
2023-03-27T03:25:10.680Z,5.30
2023-03-27T03:29:13.532Z,5.30
2023-03-27T03:33:14.724Z,5.20
2023-03-27T03:37:15.870Z,5.30
2023-03-27T03:41:17.024Z,5.10
2023-03-27T03:45:19.284Z,5.10
2023-03-27T03:49:20.673Z,4.90
2023-03-27T03:53:21.822Z,5.00
2023-03-27T03:57:23.000Z,5.10
2023-03-27T04:01:25.377Z,5.00
2023-03-27T04:05:26.551Z,5.00
2023-03-27T04:09:27.696Z,5.20
2023-03-27T04:13:29.122Z,5.10
2023-03-27T04:17:32.334Z,5.00
2023-03-27T04:21:33.577Z,5.00
2023-03-27T04:25:34.746Z,5.10
2023-03-27T04:29:35.901Z,5.00
2023-03-27T04:33:39.372Z,4.90
2023-03-27T04:37:42.383Z,4.90
2023-03-27T04:41:50.561Z,4.80
2023-03-27T04:45:52.724Z,4.60
2023-03-27T04:49:54.208Z,4.60
2023-03-27T04:53:56.132Z,4.50
2023-03-27T04:57:59.218Z,4.50
2023-03-27T05:02:00.973Z,4.60
2023-03-27T05:06:03.965Z,4.60
2023-03-27T05:10:05.748Z,4.80
2023-03-27T05:14:06.892Z,4.70
2023-03-27T05:18:08.361Z,4.80
2023-03-27T05:22:09.914Z,4.90
2023-03-27T05:26:11.100Z,4.90
2023-03-27T05:30:15.338Z,4.80
2023-03-27T05:34:18.415Z,4.90
2023-03-27T05:38:19.888Z,5.10
2023-03-27T05:42:21.061Z,5.20
2023-03-27T05:46:22.249Z,5.30
2023-03-27T05:50:26.261Z,5.20
2023-03-27T05:54:27.447Z,5.40
2023-03-27T05:58:28.587Z,5.50
2023-03-27T06:02:29.822Z,5.50
2023-03-27T06:06:31.830Z,5.60
2023-03-27T06:10:33.477Z,5.70
2023-03-27T06:14:34.635Z,5.50
2023-03-27T06:18:37.390Z,5.70
2023-03-27T06:22:42.368Z,5.80
2023-03-27T06:26:44.251Z,5.80
2023-03-27T06:30:47.137Z,5.70
2023-03-27T06:34:49.455Z,5.60
2023-03-27T06:38:51.274Z,5.80
2023-03-27T06:42:57.893Z,6.20
2023-03-27T06:46:59.216Z,6.20
2023-03-27T06:51:00.370Z,6.30
2023-03-27T06:55:02.604Z,6.40
2023-03-27T06:59:04.278Z,6.70
2023-03-27T07:03:07.730Z,6.70
2023-03-27T07:07:09.691Z,6.80
2023-03-27T07:11:12.460Z,7.00
2023-03-27T07:15:16.323Z,7.30
2023-03-27T07:19:18.421Z,7.40
2023-03-27T07:23:19.773Z,7.50
2023-03-27T07:27:23.225Z,7.90
2023-03-27T07:35:29.198Z,8.40
2023-03-27T07:39:30.333Z,8.60
2023-03-27T07:43:34.154Z,8.90
2023-03-27T07:47:36.045Z,8.80
2023-03-27T07:51:38.763Z,9.00
2023-03-27T07:55:41.319Z,9.20
2023-03-27T07:59:44.609Z,9.60
2023-03-27T08:03:50.127Z,9.70
2023-03-27T08:07:51.289Z,10.30
2023-03-27T08:11:52.452Z,11.10
2023-03-27T08:16:08.864Z,11.50
2023-03-27T08:20:12.275Z,11.80
2023-03-27T08:24:13.432Z,12.30
2023-03-27T08:28:15.323Z,12.30
2023-03-27T08:32:16.885Z,11.70
2023-03-27T08:36:19.347Z,11.40
2023-03-27T08:40:25.366Z,10.70
2023-03-27T08:44:28.756Z,10.20
2023-03-27T08:48:33.765Z,10.00
2023-03-27T08:52:35.411Z,9.70
2023-03-27T08:56:36.703Z,9.80
2023-03-27T09:00:40.461Z,10.50
2023-03-27T09:04:54.648Z,11.50
2023-03-27T09:09:17.932Z,11.50
2023-03-27T09:13:34.540Z,11.50
2023-03-27T09:17:39.935Z,11.80
2023-03-27T09:21:48.263Z,11.80
2023-03-27T09:25:53.447Z,12.00
2023-03-27T09:30:17.839Z,12.20
2023-03-27T09:34:26.013Z,11.90
2023-03-27T09:38:41.640Z,12.10
2023-03-27T09:42:44.618Z,12.30
2023-03-27T09:46:49.233Z,12.20
2023-03-27T09:50:50.468Z,11.90
2023-03-27T09:54:55.277Z,11.60
2023-03-27T09:58:59.655Z,11.80
2023-03-27T10:03:07.413Z,12.40
2023-03-27T10:07:12.421Z,12.40
2023-03-27T10:11:17.004Z,12.00
2023-03-27T10:15:34.218Z,12.40
2023-03-27T10:19:38.093Z,13.20
2023-03-27T10:23:43.319Z,12.80
2023-03-27T10:27:46.012Z,13.00
2023-03-27T10:31:52.430Z,13.60
2023-03-27T10:35:54.183Z,13.20
2023-03-27T10:39:59.084Z,13.10
2023-03-27T10:44:00.666Z,13.70
2023-03-27T10:48:03.864Z,14.00
2023-03-27T10:52:27.207Z,14.70
2023-03-27T10:56:40.836Z,13.60
2023-03-27T11:00:47.031Z,12.70
2023-03-27T11:04:57.905Z,13.10
2023-03-27T11:09:06.424Z,12.40
2023-03-27T11:13:26.171Z,12.50
2023-03-27T11:17:31.410Z,12.50
2023-03-27T11:21:48.788Z,12.40
2023-03-27T11:25:52.312Z,13.50
2023-03-27T11:30:13.755Z,12.30
2023-03-27T11:34:31.806Z,12.00
2023-03-27T11:38:36.776Z,12.40
2023-03-27T11:42:43.641Z,13.10
2023-03-27T11:46:51.637Z,12.30
2023-03-27T11:51:02.619Z,11.90
2023-03-27T11:55:40.814Z,11.90
2023-03-27T12:00:00.963Z,12.60
2023-03-27T12:04:23.942Z,12.80
2023-03-27T12:08:41.314Z,12.90
2023-03-27T12:12:58.067Z,11.60
2023-03-27T12:17:06.089Z,11.80
2023-03-27T12:21:12.994Z,11.60
2023-03-27T12:25:44.624Z,12.40
2023-03-27T12:30:04.291Z,12.90
2023-03-27T12:34:26.483Z,12.50
2023-03-27T12:38:34.746Z,11.50
2023-03-27T12:42:51.548Z,11.50
2023-03-27T12:47:19.221Z,11.30
2023-03-27T12:51:43.134Z,12.10
2023-03-27T12:55:44.586Z,12.40
2023-03-27T12:59:52.669Z,12.60
2023-03-27T13:04:15.603Z,12.70
2023-03-27T13:08:54.319Z,12.60
2023-03-27T13:13:21.060Z,12.60
2023-03-27T13:17:41.474Z,12.60
2023-03-27T13:21:58.795Z,12.30
2023-03-27T13:26:22.005Z,12.70
2023-03-27T13:30:44.173Z,13.20
2023-03-27T13:35:00.894Z,13.20
2023-03-27T13:39:07.456Z,13.80
2023-03-27T13:43:27.898Z,13.70
2023-03-27T13:47:48.413Z,13.90
2023-03-27T13:52:02.174Z,14.20
2023-03-27T13:56:19.558Z,13.50
2023-03-27T14:00:40.917Z,13.40
2023-03-27T14:05:08.916Z,13.20
2023-03-27T14:09:29.222Z,12.80
2023-03-27T14:13:40.174Z,12.20
2023-03-27T14:17:56.901Z,11.90
2023-03-27T14:22:04.882Z,11.80
2023-03-27T14:26:09.928Z,11.40
2023-03-27T14:30:20.923Z,11.00
2023-03-27T14:34:27.791Z,10.20
2023-03-27T14:38:32.483Z,9.70
2023-03-27T14:42:34.792Z,9.40
2023-03-27T14:46:36.788Z,9.60
2023-03-27T14:50:39.014Z,10.00
2023-03-27T14:54:54.378Z,10.30
2023-03-27T14:58:46.214Z,10.80
2023-03-27T15:02:51.522Z,11.00
2023-03-27T15:06:54.584Z,11.40
2023-03-27T15:10:56.023Z,11.50
2023-03-27T15:14:58.837Z,11.70
2023-03-27T15:19:16.555Z,11.80
2023-03-27T15:23:25.780Z,11.70
2023-03-27T15:27:33.465Z,11.60
2023-03-27T15:31:35.890Z,11.20
2023-03-27T15:35:41.125Z,10.20
2023-03-27T15:40:08.127Z,9.10
2023-03-27T15:44:18.750Z,8.60
2023-03-27T15:48:26.251Z,8.50
2023-03-27T15:52:32.827Z,8.70
2023-03-27T15:56:40.532Z,8.80
2023-03-27T16:00:50.928Z,9.10
2023-03-27T16:04:54.778Z,9.60
2023-03-27T16:08:57.196Z,9.80
2023-03-27T16:13:02.233Z,10.10
2023-03-27T16:17:19.913Z,10.00
2023-03-27T16:21:24.382Z,9.80
2023-03-27T16:25:25.656Z,9.50
2023-03-27T16:29:26.824Z,9.40
2023-03-27T16:33:28.230Z,9.40
2023-03-27T16:37:29.375Z,9.20
2023-03-27T16:41:30.733Z,9.20
2023-03-27T16:45:32.015Z,9.20
2023-03-27T16:49:33.682Z,8.80
2023-03-27T16:53:34.935Z,8.90
2023-03-27T16:57:36.078Z,8.90
2023-03-27T17:01:37.275Z,8.90
2023-03-27T17:05:39.829Z,8.90
2023-03-27T17:09:41.002Z,8.80
2023-03-27T17:13:43.524Z,8.40
2023-03-27T17:17:45.246Z,8.30
2023-03-27T17:21:46.485Z,8.20
2023-03-27T17:25:48.063Z,8.10
2023-03-27T17:29:50.431Z,8.00
2023-03-27T17:33:51.709Z,7.90
2023-03-27T17:37:52.868Z,8.00
2023-03-27T17:41:54.036Z,8.00
2023-03-27T17:45:55.452Z,7.90
2023-03-27T17:49:56.755Z,7.80
2023-03-27T17:53:58.017Z,7.90
2023-03-27T17:58:08.845Z,7.80
2023-03-27T18:02:02.171Z,7.90
2023-03-27T18:06:03.694Z,7.90
2023-03-27T18:10:07.702Z,7.60
2023-03-27T18:14:08.887Z,7.30
2023-03-27T18:18:10.421Z,7.20
2023-03-27T18:22:12.327Z,7.20
2023-03-27T18:26:13.674Z,7.20
2023-03-27T18:30:16.617Z,7.20
2023-03-27T18:34:18.200Z,7.50
2023-03-27T18:38:19.754Z,7.20
2023-03-27T18:42:22.010Z,7.20
2023-03-27T18:46:23.306Z,7.10
2023-03-27T18:50:25.073Z,7.20
2023-03-27T18:54:26.481Z,7.10
2023-03-27T18:58:29.106Z,7.00
2023-03-27T19:02:31.588Z,6.80
2023-03-27T19:06:34.415Z,7.00
2023-03-27T19:10:36.509Z,6.90
2023-03-27T19:14:37.982Z,7.10
2023-03-27T19:18:39.143Z,7.10
2023-03-27T19:22:40.457Z,7.20
2023-03-27T19:26:42.377Z,7.30
2023-03-27T19:30:43.990Z,7.30
2023-03-27T19:34:45.225Z,7.30
2023-03-27T19:38:46.699Z,7.30
2023-03-27T19:42:47.925Z,7.20
2023-03-27T19:46:50.273Z,7.20
2023-03-27T19:50:59.062Z,7.10
2023-03-27T19:55:01.025Z,7.00
2023-03-27T19:59:04.850Z,7.00
2023-03-27T20:03:09.123Z,6.90
2023-03-27T20:07:11.041Z,6.90
2023-03-27T20:11:12.328Z,6.80
2023-03-27T20:15:13.689Z,6.80
2023-03-27T20:19:16.209Z,6.70
2023-03-27T20:23:18.153Z,6.80
2023-03-27T20:27:19.382Z,6.80
2023-03-27T20:31:20.781Z,6.70
2023-03-27T20:35:25.050Z,6.70
2023-03-27T20:39:28.875Z,6.70
2023-03-27T20:43:33.613Z,6.70
2023-03-27T20:47:36.906Z,6.70
2023-03-27T20:51:39.526Z,6.60
2023-03-27T20:55:49.602Z,6.60
2023-03-27T20:59:47.005Z,6.50
2023-03-27T21:03:48.905Z,6.50
2023-03-27T21:07:51.171Z,6.60
2023-03-27T21:11:55.904Z,6.50
2023-03-27T21:15:58.571Z,6.50
2023-03-27T21:20:00.904Z,6.40
2023-03-27T21:24:02.231Z,6.50
2023-03-27T21:28:04.211Z,6.40
2023-03-27T21:32:06.054Z,6.50
2023-03-27T21:36:09.191Z,6.50
2023-03-27T21:40:11.787Z,6.50
2023-03-27T21:44:13.283Z,6.40
2023-03-27T21:48:14.728Z,6.40
2023-03-27T21:52:16.201Z,6.40
2023-03-27T21:56:17.483Z,6.50
2023-03-27T22:00:19.647Z,6.40
2023-03-27T22:04:21.873Z,6.30
2023-03-27T22:08:31.144Z,6.20
2023-03-27T22:12:37.042Z,6.20
2023-03-27T22:16:38.660Z,6.10
2023-03-27T22:20:40.853Z,6.20
2023-03-27T22:24:42.207Z,6.10
2023-03-27T22:28:43.722Z,6.10
2023-03-27T22:32:45.557Z,6.10
2023-03-27T22:36:50.182Z,6.10
2023-03-27T22:40:55.074Z,6.10
2023-03-27T22:44:59.282Z,6.00
2023-03-27T22:49:06.369Z,5.90
2023-03-27T22:53:08.201Z,5.90
2023-03-27T22:57:12.860Z,5.90
2023-03-27T23:01:21.813Z,5.90
2023-03-27T23:05:25.982Z,5.80
2023-03-27T23:09:29.971Z,5.70
2023-03-27T23:13:33.923Z,5.60
2023-03-27T23:17:35.338Z,5.60
2023-03-27T23:21:43.255Z,5.60
2023-03-27T23:25:45.035Z,5.60
2023-03-27T23:29:47.711Z,5.60
2023-03-27T23:33:50.881Z,5.60
2023-03-27T23:37:52.704Z,5.50
2023-03-27T23:41:54.897Z,5.50
2023-03-27T23:45:58.460Z,5.40
2023-03-27T23:49:59.796Z,5.40
2023-03-27T23:54:00.943Z,5.40
2023-03-27T23:58:04.189Z,5.30
